Aviation Digital Data Service (ADDS)

Output produced by TAFs form (1703 UTC 29 May 2017)
found at http://www.aviationweather.gov/adds/tafs/
 
Forecast for: ROIG (ISHIGAKIJIMA ISL, JP)
Text: TAF ROIG 291108Z 2912/3018 06008KT 9999 FEW015 BKN025
Forecast period: 1200 UTC 29 May 2017 to 0900 UTC 30 May 2017
Forecast type: FROM: standard forecast or significant change
Winds: from the ENE (60 degrees) at 9 MPH (8 knots; 4.2 m/s)
Visibility: 6 or more miles (10+ km)
Ceiling: 2500 feet AGL
Clouds: few clouds at 1500 feet AGL
broken clouds at 2500 feet AGL
Weather: no significant weather forecast for this period
Text: BECMG 3009/3012 15005KT
Forecast period: 0900 to 1800 UTC 30 May 2017
Forecast type: BECOMING: Conditions expected to become as follows by 1200 UTC 30 May 2017
Winds: from the SSE (150 degrees) at 6 MPH (5 knots; 2.6 m/s)
Visibility: 6 or more miles (10+ km)
Ceiling: 2500 feet AGL
Clouds: few clouds at 1500 feet AGL
broken clouds at 2500 feet AGL
Weather: no significant weather forecast for this period
Text: TEMPO 3012/3015 4000 SHRA FEW005 BKN008
Forecast period: 1200 to 1500 UTC 30 May 2017
Forecast type: TEMPORARY: The following changes expected for less than half the time period
Visibility: 2.49 miles (4.01 km)
Ceiling: 800 feet AGL
Clouds: few clouds at 500 feet AGL
broken clouds at 800 feet AGL
Weather: SHRA  (rain showers)